sensor_id;sensor_type;location;lat;lon;timestamp;temperature;humidity
698;DHT22;331;48.414;9.938;2022-07-29T00:01:07;23.60;79.80
698;DHT22;331;48.414;9.938;2022-07-29T00:03:34;23.60;79.80
698;DHT22;331;48.414;9.938;2022-07-29T00:06:02;23.60;79.70
698;DHT22;331;48.414;9.938;2022-07-29T00:08:29;23.60;79.80
698;DHT22;331;48.414;9.938;2022-07-29T00:10:56;23.60;79.90
698;DHT22;331;48.414;9.938;2022-07-29T00:13:23;23.50;79.80
698;DHT22;331;48.414;9.938;2022-07-29T00:15:50;23.50;80.00
698;DHT22;331;48.414;9.938;2022-07-29T00:18:17;23.50;80.20
698;DHT22;331;48.414;9.938;2022-07-29T00:20:43;23.40;80.10
698;DHT22;331;48.414;9.938;2022-07-29T00:23:12;23.40;80.20
698;DHT22;331;48.414;9.938;2022-07-29T00:25:38;23.40;80.40
698;DHT22;331;48.414;9.938;2022-07-29T00:28:05;23.40;80.40
698;DHT22;331;48.414;9.938;2022-07-29T00:30:32;23.30;81.00
698;DHT22;331;48.414;9.938;2022-07-29T00:32:59;23.30;80.40
698;DHT22;331;48.414;9.938;2022-07-29T00:35:26;23.30;80.60
698;DHT22;331;48.414;9.938;2022-07-29T00:38:12;23.30;80.90
698;DHT22;331;48.414;9.938;2022-07-29T00:40:39;23.30;80.90
698;DHT22;331;48.414;9.938;2022-07-29T00:43:06;23.20;80.80
698;DHT22;331;48.414;9.938;2022-07-29T00:45:33;23.20;80.80
698;DHT22;331;48.414;9.938;2022-07-29T00:48:00;23.20;81.00
698;DHT22;331;48.414;9.938;2022-07-29T00:50:27;23.20;81.10
698;DHT22;331;48.414;9.938;2022-07-29T00:52:54;23.20;81.10
698;DHT22;331;48.414;9.938;2022-07-29T00:55:22;23.10;81.10
698;DHT22;331;48.414;9.938;2022-07-29T00:57:49;23.10;81.20
698;DHT22;331;48.414;9.938;2022-07-29T01:00:17;23.10;81.20
698;DHT22;331;48.414;9.938;2022-07-29T01:02:48;23.00;81.30
698;DHT22;331;48.414;9.938;2022-07-29T01:05:15;23.00;81.20
698;DHT22;331;48.414;9.938;2022-07-29T01:07:43;23.00;81.40
698;DHT22;331;48.414;9.938;2022-07-29T01:10:10;23.00;81.40
698;DHT22;331;48.414;9.938;2022-07-29T01:12:40;23.00;81.60
698;DHT22;331;48.414;9.938;2022-07-29T01:15:07;23.00;81.80
698;DHT22;331;48.414;9.938;2022-07-29T01:17:36;22.90;81.60
698;DHT22;331;48.414;9.938;2022-07-29T01:20:05;22.90;81.60
698;DHT22;331;48.414;9.938;2022-07-29T01:22:35;22.90;81.70
698;DHT22;331;48.414;9.938;2022-07-29T01:25:10;22.80;81.80
698;DHT22;331;48.414;9.938;2022-07-29T01:27:44;22.80;82.00
698;DHT22;331;48.414;9.938;2022-07-29T01:30:13;22.80;81.80
698;DHT22;331;48.414;9.938;2022-07-29T01:32:40;22.80;81.90
698;DHT22;331;48.414;9.938;2022-07-29T01:35:10;22.80;82.00
698;DHT22;331;48.414;9.938;2022-07-29T01:37:38;22.70;81.90
698;DHT22;331;48.414;9.938;2022-07-29T01:40:07;22.70;82.00
698;DHT22;331;48.414;9.938;2022-07-29T01:42:35;22.70;82.00
698;DHT22;331;48.414;9.938;2022-07-29T01:45:08;22.60;81.90
698;DHT22;331;48.414;9.938;2022-07-29T01:47:39;22.60;81.90
698;DHT22;331;48.414;9.938;2022-07-29T01:50:07;22.60;82.00
698;DHT22;331;48.414;9.938;2022-07-29T01:52:39;22.60;82.20
698;DHT22;331;48.414;9.938;2022-07-29T01:55:09;22.60;82.10
698;DHT22;331;48.414;9.938;2022-07-29T01:57:36;22.60;82.20
698;DHT22;331;48.414;9.938;2022-07-29T02:00:05;22.50;82.00
698;DHT22;331;48.414;9.938;2022-07-29T02:02:40;22.50;82.30
698;DHT22;331;48.414;9.938;2022-07-29T02:05:08;22.50;82.40
698;DHT22;331;48.414;9.938;2022-07-29T02:07:36;22.40;82.30
698;DHT22;331;48.414;9.938;2022-07-29T02:10:04;22.40;82.50
698;DHT22;331;48.414;9.938;2022-07-29T02:12:32;22.40;82.60
698;DHT22;331;48.414;9.938;2022-07-29T02:15:01;22.40;82.80
698;DHT22;331;48.414;9.938;2022-07-29T02:17:31;22.40;82.80
698;DHT22;331;48.414;9.938;2022-07-29T02:20:02;22.40;82.80
698;DHT22;331;48.414;9.938;2022-07-29T02:22:30;22.40;82.80
698;DHT22;331;48.414;9.938;2022-07-29T02:24:57;22.40;82.90
698;DHT22;331;48.414;9.938;2022-07-29T02:27:24;22.30;83.00
698;DHT22;331;48.414;9.938;2022-07-29T02:29:52;22.30;83.00
698;DHT22;331;48.414;9.938;2022-07-29T02:32:19;22.30;83.30
698;DHT22;331;48.414;9.938;2022-07-29T02:34:47;22.30;83.30
698;DHT22;331;48.414;9.938;2022-07-29T02:37:16;22.20;83.40
698;DHT22;331;48.414;9.938;2022-07-29T02:39:44;22.20;83.40
698;DHT22;331;48.414;9.938;2022-07-29T02:42:12;22.20;83.40
698;DHT22;331;48.414;9.938;2022-07-29T02:44:39;22.20;83.50
698;DHT22;331;48.414;9.938;2022-07-29T02:47:07;22.20;83.50
698;DHT22;331;48.414;9.938;2022-07-29T02:49:37;22.10;83.50
698;DHT22;331;48.414;9.938;2022-07-29T02:52:06;22.10;83.70
698;DHT22;331;48.414;9.938;2022-07-29T02:54:39;22.10;83.70
698;DHT22;331;48.414;9.938;2022-07-29T02:57:09;22.10;83.90
698;DHT22;331;48.414;9.938;2022-07-29T02:59:36;22.00;84.00
698;DHT22;331;48.414;9.938;2022-07-29T03:02:03;22.00;84.20
698;DHT22;331;48.414;9.938;2022-07-29T03:04:31;22.00;84.30
698;DHT22;331;48.414;9.938;2022-07-29T03:06:59;22.00;84.40
698;DHT22;331;48.414;9.938;2022-07-29T03:09:26;22.00;84.40
698;DHT22;331;48.414;9.938;2022-07-29T03:11:56;21.90;84.50
698;DHT22;331;48.414;9.938;2022-07-29T03:14:23;21.90;84.50
698;DHT22;331;48.414;9.938;2022-07-29T03:16:51;21.90;84.50
698;DHT22;331;48.414;9.938;2022-07-29T03:19:18;21.90;84.50
698;DHT22;331;48.414;9.938;2022-07-29T03:21:45;21.90;84.60
698;DHT22;331;48.414;9.938;2022-07-29T03:24:23;21.80;84.40
698;DHT22;331;48.414;9.938;2022-07-29T03:26:50;21.80;84.50
698;DHT22;331;48.414;9.938;2022-07-29T03:29:19;21.80;84.60
698;DHT22;331;48.414;9.938;2022-07-29T03:31:45;21.80;84.60
698;DHT22;331;48.414;9.938;2022-07-29T03:34:12;21.70;84.30
698;DHT22;331;48.414;9.938;2022-07-29T03:36:39;21.70;84.20
698;DHT22;331;48.414;9.938;2022-07-29T03:39:06;21.70;84.30
698;DHT22;331;48.414;9.938;2022-07-29T03:41:34;21.70;84.30
698;DHT22;331;48.414;9.938;2022-07-29T03:44:01;21.70;84.40
698;DHT22;331;48.414;9.938;2022-07-29T03:46:30;21.60;84.20
698;DHT22;331;48.414;9.938;2022-07-29T03:48:58;21.60;84.30
698;DHT22;331;48.414;9.938;2022-07-29T03:51:26;21.60;84.00
698;DHT22;331;48.414;9.938;2022-07-29T03:53:53;21.60;83.90
698;DHT22;331;48.414;9.938;2022-07-29T03:56:21;21.50;84.10
698;DHT22;331;48.414;9.938;2022-07-29T03:58:48;21.50;83.90
698;DHT22;331;48.414;9.938;2022-07-29T04:01:16;21.50;84.00
698;DHT22;331;48.414;9.938;2022-07-29T04:03:45;21.40;83.70
698;DHT22;331;48.414;9.938;2022-07-29T04:06:12;21.40;83.70
698;DHT22;331;48.414;9.938;2022-07-29T04:08:39;21.70;84.00
698;DHT22;331;48.414;9.938;2022-07-29T04:11:06;21.40;83.70
698;DHT22;331;48.414;9.938;2022-07-29T04:13:33;21.40;83.60
698;DHT22;331;48.414;9.938;2022-07-29T04:16:00;21.30;83.70
698;DHT22;331;48.414;9.938;2022-07-29T04:18:27;21.30;84.00
698;DHT22;331;48.414;9.938;2022-07-29T04:20:55;21.30;84.00
698;DHT22;331;48.414;9.938;2022-07-29T04:23:24;21.30;84.10
698;DHT22;331;48.414;9.938;2022-07-29T04:25:51;21.20;84.00
698;DHT22;331;48.414;9.938;2022-07-29T04:28:18;21.20;84.10
698;DHT22;331;48.414;9.938;2022-07-29T04:30:45;21.20;83.90
698;DHT22;331;48.414;9.938;2022-07-29T04:33:12;21.20;83.90
698;DHT22;331;48.414;9.938;2022-07-29T04:35:39;21.10;83.90
698;DHT22;331;48.414;9.938;2022-07-29T04:38:07;21.10;84.00
698;DHT22;331;48.414;9.938;2022-07-29T04:40:34;21.10;83.90
698;DHT22;331;48.414;9.938;2022-07-29T04:43:00;21.10;83.80
698;DHT22;331;48.414;9.938;2022-07-29T04:45:27;21.10;83.60
698;DHT22;331;48.414;9.938;2022-07-29T04:47:54;21.00;83.70
698;DHT22;331;48.414;9.938;2022-07-29T04:50:21;21.00;83.50
698;DHT22;331;48.414;9.938;2022-07-29T04:52:48;21.00;83.70
698;DHT22;331;48.414;9.938;2022-07-29T04:55:16;21.00;83.70
698;DHT22;331;48.414;9.938;2022-07-29T04:57:43;20.90;83.80
698;DHT22;331;48.414;9.938;2022-07-29T05:00:10;20.90;84.10
698;DHT22;331;48.414;9.938;2022-07-29T05:02:37;20.90;84.00
698;DHT22;331;48.414;9.938;2022-07-29T05:07:31;20.90;83.70
698;DHT22;331;48.414;9.938;2022-07-29T05:09:58;20.90;84.20
698;DHT22;331;48.414;9.938;2022-07-29T05:12:26;20.90;84.40
698;DHT22;331;48.414;9.938;2022-07-29T05:14:53;20.80;84.50
698;DHT22;331;48.414;9.938;2022-07-29T05:17:20;20.80;84.50
698;DHT22;331;48.414;9.938;2022-07-29T05:19:47;20.90;84.60
698;DHT22;331;48.414;9.938;2022-07-29T05:22:16;20.80;84.50
698;DHT22;331;48.414;9.938;2022-07-29T05:24:43;20.80;84.60
698;DHT22;331;48.414;9.938;2022-07-29T05:27:10;20.80;84.50
698;DHT22;331;48.414;9.938;2022-07-29T05:29:38;20.80;84.30
698;DHT22;331;48.414;9.938;2022-07-29T05:32:05;20.80;84.20
698;DHT22;331;48.414;9.938;2022-07-29T05:34:32;20.70;84.10
698;DHT22;331;48.414;9.938;2022-07-29T05:36:59;20.70;83.90
698;DHT22;331;48.414;9.938;2022-07-29T05:39:26;20.70;83.80
698;DHT22;331;48.414;9.938;2022-07-29T05:41:53;20.70;83.80
698;DHT22;331;48.414;9.938;2022-07-29T05:44:20;20.70;83.70
698;DHT22;331;48.414;9.938;2022-07-29T05:46:48;20.70;83.60
698;DHT22;331;48.414;9.938;2022-07-29T05:49:15;20.70;83.60
698;DHT22;331;48.414;9.938;2022-07-29T05:51:42;20.70;83.50
698;DHT22;331;48.414;9.938;2022-07-29T05:54:08;20.60;83.20
698;DHT22;331;48.414;9.938;2022-07-29T05:56:36;20.60;83.40
698;DHT22;331;48.414;9.938;2022-07-29T05:59:03;20.70;85.10
698;DHT22;331;48.414;9.938;2022-07-29T06:01:30;20.70;86.00
698;DHT22;331;48.414;9.938;2022-07-29T06:03:58;20.70;86.00
698;DHT22;331;48.414;9.938;2022-07-29T06:06:25;20.60;85.70
698;DHT22;331;48.414;9.938;2022-07-29T06:08:52;20.60;85.40
698;DHT22;331;48.414;9.938;2022-07-29T06:11:18;20.60;85.20
698;DHT22;331;48.414;9.938;2022-07-29T06:13:45;20.60;85.10
698;DHT22;331;48.414;9.938;2022-07-29T06:16:12;20.60;85.00
698;DHT22;331;48.414;9.938;2022-07-29T06:18:39;20.60;85.10
698;DHT22;331;48.414;9.938;2022-07-29T06:21:10;20.60;85.10
698;DHT22;331;48.414;9.938;2022-07-29T06:23:37;20.60;85.10
698;DHT22;331;48.414;9.938;2022-07-29T06:26:04;20.60;85.00
698;DHT22;331;48.414;9.938;2022-07-29T06:28:31;20.60;84.90
698;DHT22;331;48.414;9.938;2022-07-29T06:30:58;20.60;84.80
698;DHT22;331;48.414;9.938;2022-07-29T06:33:25;20.60;84.90
698;DHT22;331;48.414;9.938;2022-07-29T06:35:51;20.60;85.00
698;DHT22;331;48.414;9.938;2022-07-29T06:38:20;20.60;85.00
698;DHT22;331;48.414;9.938;2022-07-29T06:40:47;20.60;85.00
698;DHT22;331;48.414;9.938;2022-07-29T06:43:31;20.60;84.70
698;DHT22;331;48.414;9.938;2022-07-29T06:45:59;20.60;84.60
698;DHT22;331;48.414;9.938;2022-07-29T06:48:26;20.60;84.30
698;DHT22;331;48.414;9.938;2022-07-29T06:50:53;20.60;84.20
698;DHT22;331;48.414;9.938;2022-07-29T06:53:21;20.60;84.20
698;DHT22;331;48.414;9.938;2022-07-29T06:55:48;20.60;84.20
698;DHT22;331;48.414;9.938;2022-07-29T06:58:15;20.60;84.00
698;DHT22;331;48.414;9.938;2022-07-29T07:00:54;20.60;84.10
698;DHT22;331;48.414;9.938;2022-07-29T07:03:21;20.60;84.00
698;DHT22;331;48.414;9.938;2022-07-29T07:05:48;20.60;84.00
698;DHT22;331;48.414;9.938;2022-07-29T07:08:15;20.60;83.90
698;DHT22;331;48.414;9.938;2022-07-29T07:10:43;20.60;83.90
698;DHT22;331;48.414;9.938;2022-07-29T07:13:10;20.60;83.80
698;DHT22;331;48.414;9.938;2022-07-29T07:15:37;20.60;83.20
698;DHT22;331;48.414;9.938;2022-07-29T07:18:04;20.60;83.60
698;DHT22;331;48.414;9.938;2022-07-29T07:20:32;20.60;83.20
698;DHT22;331;48.414;9.938;2022-07-29T07:22:59;20.60;83.30
698;DHT22;331;48.414;9.938;2022-07-29T07:25:26;20.60;83.40
698;DHT22;331;48.414;9.938;2022-07-29T07:27:54;20.60;83.50
698;DHT22;331;48.414;9.938;2022-07-29T07:30:21;20.60;83.50
698;DHT22;331;48.414;9.938;2022-07-29T07:32:48;20.60;83.20
698;DHT22;331;48.414;9.938;2022-07-29T07:35:15;20.60;83.10
698;DHT22;331;48.414;9.938;2022-07-29T07:37:42;20.60;83.20
698;DHT22;331;48.414;9.938;2022-07-29T07:40:10;20.60;83.10
698;DHT22;331;48.414;9.938;2022-07-29T07:42:38;20.60;83.20
698;DHT22;331;48.414;9.938;2022-07-29T07:45:06;20.60;83.10
698;DHT22;331;48.414;9.938;2022-07-29T07:47:34;20.60;82.80
698;DHT22;331;48.414;9.938;2022-07-29T07:50:02;20.60;82.90
698;DHT22;331;48.414;9.938;2022-07-29T07:52:29;20.60;83.00
698;DHT22;331;48.414;9.938;2022-07-29T07:54:56;20.60;83.30
698;DHT22;331;48.414;9.938;2022-07-29T07:57:23;20.60;83.40
698;DHT22;331;48.414;9.938;2022-07-29T07:59:49;20.60;83.30
698;DHT22;331;48.414;9.938;2022-07-29T08:02:18;20.60;83.20
698;DHT22;331;48.414;9.938;2022-07-29T08:04:45;20.60;85.70
698;DHT22;331;48.414;9.938;2022-07-29T08:07:11;20.60;84.60
698;DHT22;331;48.414;9.938;2022-07-29T08:09:40;20.60;86.50
698;DHT22;331;48.414;9.938;2022-07-29T08:12:07;20.60;87.50
698;DHT22;331;48.414;9.938;2022-07-29T08:14:34;20.70;87.90
698;DHT22;331;48.414;9.938;2022-07-29T08:17:01;20.70;87.80
698;DHT22;331;48.414;9.938;2022-07-29T08:19:29;20.70;87.50
698;DHT22;331;48.414;9.938;2022-07-29T08:21:56;20.70;87.20
698;DHT22;331;48.414;9.938;2022-07-29T08:24:23;20.70;87.00
698;DHT22;331;48.414;9.938;2022-07-29T08:27:07;20.60;85.80
698;DHT22;331;48.414;9.938;2022-07-29T08:29:35;20.70;85.60
698;DHT22;331;48.414;9.938;2022-07-29T08:32:02;20.70;86.00
698;DHT22;331;48.414;9.938;2022-07-29T08:34:30;20.70;85.80
698;DHT22;331;48.414;9.938;2022-07-29T08:36:57;20.70;86.30
698;DHT22;331;48.414;9.938;2022-07-29T08:39:24;20.70;86.50
698;DHT22;331;48.414;9.938;2022-07-29T08:41:51;20.70;86.70
698;DHT22;331;48.414;9.938;2022-07-29T08:44:18;20.70;87.40
698;DHT22;331;48.414;9.938;2022-07-29T08:46:47;20.70;87.50
698;DHT22;331;48.414;9.938;2022-07-29T08:49:14;20.70;87.50
698;DHT22;331;48.414;9.938;2022-07-29T08:51:43;20.70;87.90
698;DHT22;331;48.414;9.938;2022-07-29T08:54:10;20.80;88.00
698;DHT22;331;48.414;9.938;2022-07-29T08:56:37;20.70;88.40
698;DHT22;331;48.414;9.938;2022-07-29T08:59:05;20.70;88.10
698;DHT22;331;48.414;9.938;2022-07-29T09:01:32;20.80;88.50
698;DHT22;331;48.414;9.938;2022-07-29T09:04:00;20.80;88.50
698;DHT22;331;48.414;9.938;2022-07-29T09:06:28;20.80;88.30
698;DHT22;331;48.414;9.938;2022-07-29T09:09:00;20.80;88.00
698;DHT22;331;48.414;9.938;2022-07-29T09:11:27;20.80;87.50
698;DHT22;331;48.414;9.938;2022-07-29T09:13:54;20.80;86.70
698;DHT22;331;48.414;9.938;2022-07-29T09:16:21;20.80;87.70
698;DHT22;331;48.414;9.938;2022-07-29T09:18:48;20.80;88.00
698;DHT22;331;48.414;9.938;2022-07-29T09:21:18;20.90;88.20
698;DHT22;331;48.414;9.938;2022-07-29T09:24:12;20.90;88.20
698;DHT22;331;48.414;9.938;2022-07-29T09:26:40;20.90;88.30
698;DHT22;331;48.414;9.938;2022-07-29T09:29:08;20.90;88.20
698;DHT22;331;48.414;9.938;2022-07-29T09:31:36;20.90;88.00
698;DHT22;331;48.414;9.938;2022-07-29T09:34:03;20.90;88.00
698;DHT22;331;48.414;9.938;2022-07-29T09:36:30;20.90;88.40
698;DHT22;331;48.414;9.938;2022-07-29T09:38:58;21.00;88.70
698;DHT22;331;48.414;9.938;2022-07-29T09:41:27;21.00;88.30
698;DHT22;331;48.414;9.938;2022-07-29T09:43:54;21.00;88.50
698;DHT22;331;48.414;9.938;2022-07-29T09:46:21;21.00;88.20
698;DHT22;331;48.414;9.938;2022-07-29T09:51:29;21.00;88.60
698;DHT22;331;48.414;9.938;2022-07-29T09:53:56;21.00;88.70
698;DHT22;331;48.414;9.938;2022-07-29T09:56:39;21.00;88.80
698;DHT22;331;48.414;9.938;2022-07-29T09:59:06;21.10;88.80
698;DHT22;331;48.414;9.938;2022-07-29T10:01:33;21.10;89.00
698;DHT22;331;48.414;9.938;2022-07-29T10:04:00;21.10;88.60
698;DHT22;331;48.414;9.938;2022-07-29T10:06:26;21.10;88.70
698;DHT22;331;48.414;9.938;2022-07-29T10:08:54;21.10;88.20
698;DHT22;331;48.414;9.938;2022-07-29T10:11:21;21.10;88.00
698;DHT22;331;48.414;9.938;2022-07-29T10:13:49;21.10;88.60
698;DHT22;331;48.414;9.938;2022-07-29T10:16:16;21.10;87.20
698;DHT22;331;48.414;9.938;2022-07-29T10:18:43;21.20;88.00
698;DHT22;331;48.414;9.938;2022-07-29T10:21:12;21.20;88.20
698;DHT22;331;48.414;9.938;2022-07-29T10:23:39;21.20;87.90
698;DHT22;331;48.414;9.938;2022-07-29T10:26:06;21.20;87.10
698;DHT22;331;48.414;9.938;2022-07-29T10:28:33;21.20;87.20
698;DHT22;331;48.414;9.938;2022-07-29T10:31:03;21.30;88.10
698;DHT22;331;48.414;9.938;2022-07-29T10:33:38;21.30;88.50
698;DHT22;331;48.414;9.938;2022-07-29T10:36:13;21.30;87.60
698;DHT22;331;48.414;9.938;2022-07-29T10:38:45;21.30;87.20
698;DHT22;331;48.414;9.938;2022-07-29T10:41:23;21.30;87.00
698;DHT22;331;48.414;9.938;2022-07-29T10:43:53;21.30;87.30
698;DHT22;331;48.414;9.938;2022-07-29T10:46:22;21.30;88.30
698;DHT22;331;48.414;9.938;2022-07-29T10:49:09;21.40;88.80
698;DHT22;331;48.414;9.938;2022-07-29T10:51:56;21.40;88.90
698;DHT22;331;48.414;9.938;2022-07-29T10:54:35;21.40;89.20
698;DHT22;331;48.414;9.938;2022-07-29T10:57:10;21.40;89.10
698;DHT22;331;48.414;9.938;2022-07-29T10:59:37;21.40;89.30
698;DHT22;331;48.414;9.938;2022-07-29T11:02:10;21.50;88.80
698;DHT22;331;48.414;9.938;2022-07-29T11:05:01;21.50;89.00
698;DHT22;331;48.414;9.938;2022-07-29T11:07:28;21.50;88.80
698;DHT22;331;48.414;9.938;2022-07-29T11:12:47;21.50;88.70
698;DHT22;331;48.414;9.938;2022-07-29T11:15:15;21.50;88.50
698;DHT22;331;48.414;9.938;2022-07-29T11:18:04;21.60;88.00
698;DHT22;331;48.414;9.938;2022-07-29T11:20:33;21.60;87.60
698;DHT22;331;48.414;9.938;2022-07-29T11:25:28;21.60;87.40
698;DHT22;331;48.414;9.938;2022-07-29T11:28:10;21.60;87.30
698;DHT22;331;48.414;9.938;2022-07-29T11:30:48;21.60;87.10
698;DHT22;331;48.414;9.938;2022-07-29T11:33:31;21.60;86.80
698;DHT22;331;48.414;9.938;2022-07-29T11:36:07;21.60;86.80
698;DHT22;331;48.414;9.938;2022-07-29T11:38:34;21.70;87.10
698;DHT22;331;48.414;9.938;2022-07-29T11:43:50;21.70;86.80
698;DHT22;331;48.414;9.938;2022-07-29T11:46:18;21.70;86.50
698;DHT22;331;48.414;9.938;2022-07-29T11:49:06;21.70;86.40
698;DHT22;331;48.414;9.938;2022-07-29T11:51:34;21.70;86.40
698;DHT22;331;48.414;9.938;2022-07-29T11:54:01;21.70;86.30
698;DHT22;331;48.414;9.938;2022-07-29T11:56:29;21.80;86.30
698;DHT22;331;48.414;9.938;2022-07-29T11:59:02;21.80;86.00
698;DHT22;331;48.414;9.938;2022-07-29T12:01:29;21.80;86.00
698;DHT22;331;48.414;9.938;2022-07-29T12:04:02;21.80;85.80
698;DHT22;331;48.414;9.938;2022-07-29T12:06:30;21.80;85.80
698;DHT22;331;48.414;9.938;2022-07-29T12:08:57;21.80;85.70
698;DHT22;331;48.414;9.938;2022-07-29T12:11:24;21.80;85.60
698;DHT22;331;48.414;9.938;2022-07-29T12:13:51;21.80;85.70
698;DHT22;331;48.414;9.938;2022-07-29T12:16:18;21.90;85.70
698;DHT22;331;48.414;9.938;2022-07-29T12:18:54;21.90;85.70
698;DHT22;331;48.414;9.938;2022-07-29T12:21:21;21.90;85.60
698;DHT22;331;48.414;9.938;2022-07-29T12:23:53;21.90;85.70
698;DHT22;331;48.414;9.938;2022-07-29T12:26:20;21.90;85.70
698;DHT22;331;48.414;9.938;2022-07-29T12:28:47;22.00;85.70
698;DHT22;331;48.414;9.938;2022-07-29T12:31:15;22.00;85.60
698;DHT22;331;48.414;9.938;2022-07-29T12:33:42;22.00;85.50
698;DHT22;331;48.414;9.938;2022-07-29T12:36:09;22.00;85.50
698;DHT22;331;48.414;9.938;2022-07-29T12:38:36;22.10;86.10
698;DHT22;331;48.414;9.938;2022-07-29T12:41:04;22.10;85.70
698;DHT22;331;48.414;9.938;2022-07-29T12:43:31;22.10;85.70
698;DHT22;331;48.414;9.938;2022-07-29T12:46:10;22.20;85.90
698;DHT22;331;48.414;9.938;2022-07-29T12:48:38;22.20;86.00
698;DHT22;331;48.414;9.938;2022-07-29T12:51:06;22.20;86.00
698;DHT22;331;48.414;9.938;2022-07-29T12:53:33;22.30;86.10
698;DHT22;331;48.414;9.938;2022-07-29T12:56:00;22.30;86.00
698;DHT22;331;48.414;9.938;2022-07-29T12:58:30;22.40;87.40
698;DHT22;331;48.414;9.938;2022-07-29T13:01:01;22.60;87.40
698;DHT22;331;48.414;9.938;2022-07-29T13:03:28;22.60;86.90
698;DHT22;331;48.414;9.938;2022-07-29T13:05:55;22.70;86.30
698;DHT22;331;48.414;9.938;2022-07-29T13:08:22;22.70;85.30
698;DHT22;331;48.414;9.938;2022-07-29T13:10:49;22.70;85.30
698;DHT22;331;48.414;9.938;2022-07-29T13:13:16;22.70;84.80
698;DHT22;331;48.414;9.938;2022-07-29T13:15:44;22.70;85.20
698;DHT22;331;48.414;9.938;2022-07-29T13:18:28;22.70;85.40
698;DHT22;331;48.414;9.938;2022-07-29T13:20:55;22.70;85.60
698;DHT22;331;48.414;9.938;2022-07-29T13:23:22;22.80;85.60
698;DHT22;331;48.414;9.938;2022-07-29T13:25:49;22.80;85.60
698;DHT22;331;48.414;9.938;2022-07-29T13:28:16;22.80;85.60
698;DHT22;331;48.414;9.938;2022-07-29T13:30:44;22.80;85.20
698;DHT22;331;48.414;9.938;2022-07-29T13:33:12;22.90;85.10
698;DHT22;331;48.414;9.938;2022-07-29T13:35:38;22.90;86.70
698;DHT22;331;48.414;9.938;2022-07-29T13:38:05;22.70;88.00
698;DHT22;331;48.414;9.938;2022-07-29T13:40:32;22.70;87.40
698;DHT22;331;48.414;9.938;2022-07-29T13:43:00;22.80;87.10
698;DHT22;331;48.414;9.938;2022-07-29T13:45:27;22.80;87.00
698;DHT22;331;48.414;9.938;2022-07-29T13:47:55;22.80;86.90
698;DHT22;331;48.414;9.938;2022-07-29T13:50:22;22.80;86.70
698;DHT22;331;48.414;9.938;2022-07-29T13:52:49;22.70;86.90
698;DHT22;331;48.414;9.938;2022-07-29T13:55:16;22.70;87.30
698;DHT22;331;48.414;9.938;2022-07-29T13:57:43;22.70;87.90
698;DHT22;331;48.414;9.938;2022-07-29T14:00:10;22.70;88.60
698;DHT22;331;48.414;9.938;2022-07-29T14:02:37;22.70;88.90
698;DHT22;331;48.414;9.938;2022-07-29T14:05:06;22.60;89.20
698;DHT22;331;48.414;9.938;2022-07-29T14:07:35;22.60;89.90
698;DHT22;331;48.414;9.938;2022-07-29T14:10:01;22.60;90.00
698;DHT22;331;48.414;9.938;2022-07-29T14:12:29;22.60;90.10
698;DHT22;331;48.414;9.938;2022-07-29T14:14:56;22.60;90.20
698;DHT22;331;48.414;9.938;2022-07-29T14:17:23;22.50;90.20
698;DHT22;331;48.414;9.938;2022-07-29T14:19:49;22.50;90.30
698;DHT22;331;48.414;9.938;2022-07-29T14:22:18;22.50;90.40
698;DHT22;331;48.414;9.938;2022-07-29T14:24:45;22.40;90.40
698;DHT22;331;48.414;9.938;2022-07-29T14:27:12;22.40;90.50
698;DHT22;331;48.414;9.938;2022-07-29T14:29:39;22.40;90.40
698;DHT22;331;48.414;9.938;2022-07-29T14:32:06;22.40;90.50
698;DHT22;331;48.414;9.938;2022-07-29T14:34:32;22.40;90.70
698;DHT22;331;48.414;9.938;2022-07-29T14:36:59;22.40;90.70
698;DHT22;331;48.414;9.938;2022-07-29T14:39:29;22.30;90.60
698;DHT22;331;48.414;9.938;2022-07-29T14:41:56;22.30;90.60
698;DHT22;331;48.414;9.938;2022-07-29T14:44:23;22.30;90.80
698;DHT22;331;48.414;9.938;2022-07-29T14:46:54;22.30;90.80
698;DHT22;331;48.414;9.938;2022-07-29T14:49:21;22.20;90.80
698;DHT22;331;48.414;9.938;2022-07-29T14:51:48;22.20;90.90
698;DHT22;331;48.414;9.938;2022-07-29T14:54:15;22.20;90.90
698;DHT22;331;48.414;9.938;2022-07-29T14:56:43;22.10;90.80
698;DHT22;331;48.414;9.938;2022-07-29T14:59:10;22.10;90.80
698;DHT22;331;48.414;9.938;2022-07-29T15:01:37;22.10;90.80
698;DHT22;331;48.414;9.938;2022-07-29T15:04:04;22.10;90.90
698;DHT22;331;48.414;9.938;2022-07-29T15:06:31;22.00;90.90
698;DHT22;331;48.414;9.938;2022-07-29T15:08:58;22.00;90.90
698;DHT22;331;48.414;9.938;2022-07-29T15:11:24;22.00;90.90
698;DHT22;331;48.414;9.938;2022-07-29T15:13:53;22.00;90.90
698;DHT22;331;48.414;9.938;2022-07-29T15:16:20;22.00;90.90
698;DHT22;331;48.414;9.938;2022-07-29T15:18:47;21.90;90.90
698;DHT22;331;48.414;9.938;2022-07-29T15:21:14;21.90;90.90
698;DHT22;331;48.414;9.938;2022-07-29T15:23:42;21.90;91.00
698;DHT22;331;48.414;9.938;2022-07-29T15:26:09;21.90;91.00
698;DHT22;331;48.414;9.938;2022-07-29T15:28:36;21.80;91.00
698;DHT22;331;48.414;9.938;2022-07-29T15:31:04;21.80;90.90
698;DHT22;331;48.414;9.938;2022-07-29T15:33:31;21.80;90.90
698;DHT22;331;48.414;9.938;2022-07-29T15:35:58;21.80;90.90
698;DHT22;331;48.414;9.938;2022-07-29T15:38:25;21.80;90.90
698;DHT22;331;48.414;9.938;2022-07-29T15:40:52;21.80;91.00
698;DHT22;331;48.414;9.938;2022-07-29T15:43:18;21.70;91.00
698;DHT22;331;48.414;9.938;2022-07-29T15:45:45;21.70;91.00
698;DHT22;331;48.414;9.938;2022-07-29T15:48:27;21.70;91.10
698;DHT22;331;48.414;9.938;2022-07-29T15:50:54;21.70;91.10
698;DHT22;331;48.414;9.938;2022-07-29T15:53:21;21.60;91.00
698;DHT22;331;48.414;9.938;2022-07-29T15:55:48;21.60;91.00
698;DHT22;331;48.414;9.938;2022-07-29T15:58:15;21.60;91.00
698;DHT22;331;48.414;9.938;2022-07-29T16:00:42;21.60;91.00
698;DHT22;331;48.414;9.938;2022-07-29T16:03:08;21.60;91.00
698;DHT22;331;48.414;9.938;2022-07-29T16:05:37;21.50;91.00
698;DHT22;331;48.414;9.938;2022-07-29T16:08:04;21.50;91.00
698;DHT22;331;48.414;9.938;2022-07-29T16:10:30;21.50;91.00
698;DHT22;331;48.414;9.938;2022-07-29T16:12:57;21.50;91.00
698;DHT22;331;48.414;9.938;2022-07-29T16:15:24;21.50;91.00
698;DHT22;331;48.414;9.938;2022-07-29T16:17:51;21.50;91.00
698;DHT22;331;48.414;9.938;2022-07-29T16:20:18;21.40;91.00
698;DHT22;331;48.414;9.938;2022-07-29T16:22:48;21.50;91.00
698;DHT22;331;48.414;9.938;2022-07-29T16:25:15;21.40;91.00
698;DHT22;331;48.414;9.938;2022-07-29T16:27:42;21.40;91.00
698;DHT22;331;48.414;9.938;2022-07-29T16:30:09;21.40;91.00
698;DHT22;331;48.414;9.938;2022-07-29T16:32:36;21.30;90.90
698;DHT22;331;48.414;9.938;2022-07-29T16:35:04;21.40;91.00
698;DHT22;331;48.414;9.938;2022-07-29T16:37:31;21.30;90.90
698;DHT22;331;48.414;9.938;2022-07-29T16:40:05;21.30;90.90
698;DHT22;331;48.414;9.938;2022-07-29T16:42:32;21.30;91.00
698;DHT22;331;48.414;9.938;2022-07-29T16:44:59;21.30;91.00
698;DHT22;331;48.414;9.938;2022-07-29T16:47:25;21.30;91.00
698;DHT22;331;48.414;9.938;2022-07-29T16:49:52;21.30;91.00
698;DHT22;331;48.414;9.938;2022-07-29T16:52:19;21.20;91.40
698;DHT22;331;48.414;9.938;2022-07-29T16:54:46;21.20;91.60